sensor_id;sensor_type;location;lat;lon;timestamp;P1;durP1;ratioP1;P2;durP2;ratioP2
24151;SDS011;12311;50.866;4.332;2023-05-10T00:00:52;3.65;;;1.77;;
24151;SDS011;12311;50.866;4.332;2023-05-10T00:03:18;3.67;;;1.88;;
24151;SDS011;12311;50.866;4.332;2023-05-10T00:05:43;4.80;;;1.67;;
24151;SDS011;12311;50.866;4.332;2023-05-10T00:08:09;5.18;;;1.85;;
24151;SDS011;12311;50.866;4.332;2023-05-10T00:10:35;5.82;;;2.58;;
24151;SDS011;12311;50.866;4.332;2023-05-10T00:13:02;4.93;;;2.10;;
24151;SDS011;12311;50.866;4.332;2023-05-10T00:15:28;4.47;;;2.10;;
24151;SDS011;12311;50.866;4.332;2023-05-10T00:17:55;7.43;;;2.30;;
24151;SDS011;12311;50.866;4.332;2023-05-10T00:20:21;5.70;;;2.22;;
24151;SDS011;12311;50.866;4.332;2023-05-10T00:22:47;3.50;;;1.85;;
24151;SDS011;12311;50.866;4.332;2023-05-10T00:25:13;7.75;;;2.38;;
24151;SDS011;12311;50.866;4.332;2023-05-10T00:27:38;5.30;;;2.42;;
24151;SDS011;12311;50.866;4.332;2023-05-10T00:30:04;3.92;;;2.00;;
24151;SDS011;12311;50.866;4.332;2023-05-10T00:32:31;4.65;;;2.35;;
24151;SDS011;12311;50.866;4.332;2023-05-10T00:34:57;4.40;;;2.97;;
24151;SDS011;12311;50.866;4.332;2023-05-10T00:37:22;4.28;;;2.33;;
24151;SDS011;12311;50.866;4.332;2023-05-10T00:39:48;7.55;;;2.30;;
24151;SDS011;12311;50.866;4.332;2023-05-10T00:42:14;6.22;;;2.17;;
24151;SDS011;12311;50.866;4.332;2023-05-10T00:44:39;3.42;;;2.05;;
24151;SDS011;12311;50.866;4.332;2023-05-10T00:47:05;2.90;;;1.70;;
24151;SDS011;12311;50.866;4.332;2023-05-10T00:49:31;3.40;;;1.52;;
24151;SDS011;12311;50.866;4.332;2023-05-10T00:51:57;10.57;;;2.97;;
24151;SDS011;12311;50.866;4.332;2023-05-10T00:54:23;3.80;;;1.98;;
24151;SDS011;12311;50.866;4.332;2023-05-10T00:56:49;6.00;;;3.05;;
24151;SDS011;12311;50.866;4.332;2023-05-10T00:59:15;6.10;;;2.67;;
24151;SDS011;12311;50.866;4.332;2023-05-10T01:01:43;4.15;;;2.40;;
24151;SDS011;12311;50.866;4.332;2023-05-10T01:04:10;4.25;;;2.22;;
24151;SDS011;12311;50.866;4.332;2023-05-10T01:06:37;3.55;;;1.83;;
24151;SDS011;12311;50.866;4.332;2023-05-10T01:09:04;7.38;;;1.95;;
24151;SDS011;12311;50.866;4.332;2023-05-10T01:11:32;6.88;;;1.95;;
24151;SDS011;12311;50.866;4.332;2023-05-10T01:14:02;4.95;;;2.80;;
24151;SDS011;12311;50.866;4.332;2023-05-10T01:16:29;6.30;;;2.40;;
24151;SDS011;12311;50.866;4.332;2023-05-10T01:19:01;11.45;;;3.47;;
24151;SDS011;12311;50.866;4.332;2023-05-10T01:27:07;3.97;;;1.98;;
24151;SDS011;12311;50.866;4.332;2023-05-10T01:35:32;6.97;;;2.42;;
24151;SDS011;12311;50.866;4.332;2023-05-10T01:43:19;6.13;;;2.53;;
24151;SDS011;12311;50.866;4.332;2023-05-10T01:45:56;6.00;;;3.13;;
24151;SDS011;12311;50.866;4.332;2023-05-10T01:48:29;8.82;;;2.65;;
24151;SDS011;12311;50.866;4.332;2023-05-10T01:50:56;8.80;;;3.33;;
24151;SDS011;12311;50.866;4.332;2023-05-10T01:53:23;7.82;;;2.60;;
24151;SDS011;12311;50.866;4.332;2023-05-10T01:55:51;7.40;;;3.08;;
24151;SDS011;12311;50.866;4.332;2023-05-10T01:58:20;6.38;;;2.10;;
24151;SDS011;12311;50.866;4.332;2023-05-10T02:00:55;7.40;;;2.28;;
24151;SDS011;12311;50.866;4.332;2023-05-10T02:03:24;5.25;;;2.42;;
24151;SDS011;12311;50.866;4.332;2023-05-10T02:05:52;8.07;;;2.88;;
24151;SDS011;12311;50.866;4.332;2023-05-10T02:08:19;10.82;;;3.08;;
24151;SDS011;12311;50.866;4.332;2023-05-10T02:10:46;6.22;;;2.80;;
24151;SDS011;12311;50.866;4.332;2023-05-10T02:13:15;12.25;;;3.42;;
24151;SDS011;12311;50.866;4.332;2023-05-10T02:15:43;5.13;;;2.97;;
24151;SDS011;12311;50.866;4.332;2023-05-10T02:18:12;8.50;;;2.60;;
24151;SDS011;12311;50.866;4.332;2023-05-10T02:20:39;5.47;;;2.83;;
24151;SDS011;12311;50.866;4.332;2023-05-10T02:23:05;7.85;;;2.30;;
24151;SDS011;12311;50.866;4.332;2023-05-10T02:25:33;8.05;;;2.75;;
24151;SDS011;12311;50.866;4.332;2023-05-10T02:28:01;12.40;;;3.15;;
24151;SDS011;12311;50.866;4.332;2023-05-10T02:30:30;11.38;;;3.40;;
24151;SDS011;12311;50.866;4.332;2023-05-10T02:32:57;6.38;;;2.35;;
24151;SDS011;12311;50.866;4.332;2023-05-10T02:35:24;9.90;;;2.50;;
24151;SDS011;12311;50.866;4.332;2023-05-10T02:37:52;8.43;;;3.38;;
24151;SDS011;12311;50.866;4.332;2023-05-10T02:40:18;10.65;;;3.15;;
24151;SDS011;12311;50.866;4.332;2023-05-10T02:42:47;7.07;;;2.40;;
24151;SDS011;12311;50.866;4.332;2023-05-10T02:45:19;7.65;;;3.15;;
24151;SDS011;12311;50.866;4.332;2023-05-10T02:47:48;9.82;;;2.83;;
24151;SDS011;12311;50.866;4.332;2023-05-10T02:50:14;8.68;;;2.30;;
24151;SDS011;12311;50.866;4.332;2023-05-10T02:52:42;8.13;;;2.83;;
24151;SDS011;12311;50.866;4.332;2023-05-10T02:55:15;8.52;;;2.45;;
24151;SDS011;12311;50.866;4.332;2023-05-10T02:57:43;10.48;;;2.40;;
24151;SDS011;12311;50.866;4.332;2023-05-10T03:00:15;4.43;;;2.33;;
24151;SDS011;12311;50.866;4.332;2023-05-10T03:02:41;10.13;;;3.00;;
24151;SDS011;12311;50.866;4.332;2023-05-10T03:05:07;7.70;;;2.42;;
24151;SDS011;12311;50.866;4.332;2023-05-10T03:07:33;6.20;;;2.42;;
24151;SDS011;12311;50.866;4.332;2023-05-10T03:09:59;9.13;;;2.10;;
24151;SDS011;12311;50.866;4.332;2023-05-10T03:12:36;6.00;;;2.65;;
24151;SDS011;12311;50.866;4.332;2023-05-10T03:15:29;7.65;;;2.55;;
24151;SDS011;12311;50.866;4.332;2023-05-10T03:18:36;8.00;;;2.58;;
24151;SDS011;12311;50.866;4.332;2023-05-10T03:21:02;6.50;;;2.75;;
24151;SDS011;12311;50.866;4.332;2023-05-10T03:26:24;10.48;;;3.75;;
24151;SDS011;12311;50.866;4.332;2023-05-10T03:28:51;6.35;;;3.00;;
24151;SDS011;12311;50.866;4.332;2023-05-10T03:31:18;5.78;;;2.60;;
24151;SDS011;12311;50.866;4.332;2023-05-10T03:33:50;6.03;;;3.10;;
24151;SDS011;12311;50.866;4.332;2023-05-10T03:36:17;9.40;;;2.85;;
24151;SDS011;12311;50.866;4.332;2023-05-10T03:38:44;6.28;;;3.22;;
24151;SDS011;12311;50.866;4.332;2023-05-10T03:41:10;8.10;;;3.88;;
24151;SDS011;12311;50.866;4.332;2023-05-10T03:43:36;8.07;;;2.58;;
24151;SDS011;12311;50.866;4.332;2023-05-10T03:46:05;6.57;;;2.72;;
24151;SDS011;12311;50.866;4.332;2023-05-10T03:48:31;9.05;;;2.88;;
24151;SDS011;12311;50.866;4.332;2023-05-10T03:50:57;9.48;;;3.35;;
24151;SDS011;12311;50.866;4.332;2023-05-10T03:53:23;9.52;;;4.55;;
24151;SDS011;12311;50.866;4.332;2023-05-10T03:55:49;9.40;;;3.53;;
24151;SDS011;12311;50.866;4.332;2023-05-10T03:58:15;6.88;;;3.17;;
24151;SDS011;12311;50.866;4.332;2023-05-10T04:00:40;9.13;;;3.40;;
24151;SDS011;12311;50.866;4.332;2023-05-10T04:03:11;6.72;;;3.17;;
24151;SDS011;12311;50.866;4.332;2023-05-10T04:05:38;11.93;;;4.25;;
24151;SDS011;12311;50.866;4.332;2023-05-10T04:08:04;16.10;;;4.43;;
24151;SDS011;12311;50.866;4.332;2023-05-10T04:10:30;9.57;;;3.38;;
24151;SDS011;12311;50.866;4.332;2023-05-10T04:12:56;11.93;;;3.45;;
24151;SDS011;12311;50.866;4.332;2023-05-10T04:15:21;7.68;;;3.63;;
24151;SDS011;12311;50.866;4.332;2023-05-10T04:17:48;14.57;;;3.40;;
24151;SDS011;12311;50.866;4.332;2023-05-10T04:20:14;7.70;;;2.85;;
24151;SDS011;12311;50.866;4.332;2023-05-10T04:22:40;10.18;;;4.03;;
24151;SDS011;12311;50.866;4.332;2023-05-10T04:25:06;7.22;;;3.33;;
24151;SDS011;12311;50.866;4.332;2023-05-10T04:27:32;11.38;;;3.35;;
24151;SDS011;12311;50.866;4.332;2023-05-10T04:29:58;6.63;;;3.50;;
24151;SDS011;12311;50.866;4.332;2023-05-10T04:32:24;12.55;;;4.68;;
24151;SDS011;12311;50.866;4.332;2023-05-10T04:34:49;13.23;;;3.97;;
24151;SDS011;12311;50.866;4.332;2023-05-10T04:37:18;11.85;;;4.13;;
24151;SDS011;12311;50.866;4.332;2023-05-10T04:39:44;8.02;;;3.85;;
24151;SDS011;12311;50.866;4.332;2023-05-10T04:42:10;9.52;;;4.68;;
24151;SDS011;12311;50.866;4.332;2023-05-10T04:44:36;7.45;;;3.63;;
24151;SDS011;12311;50.866;4.332;2023-05-10T04:47:02;8.48;;;3.40;;
24151;SDS011;12311;50.866;4.332;2023-05-10T04:49:28;9.50;;;3.80;;
24151;SDS011;12311;50.866;4.332;2023-05-10T04:51:54;10.75;;;4.30;;
24151;SDS011;12311;50.866;4.332;2023-05-10T04:54:20;14.20;;;4.43;;
24151;SDS011;12311;50.866;4.332;2023-05-10T04:56:46;9.98;;;3.95;;
24151;SDS011;12311;50.866;4.332;2023-05-10T04:59:12;9.38;;;4.18;;
24151;SDS011;12311;50.866;4.332;2023-05-10T05:01:37;13.23;;;4.63;;
24151;SDS011;12311;50.866;4.332;2023-05-10T05:04:04;18.83;;;5.45;;
24151;SDS011;12311;50.866;4.332;2023-05-10T05:06:29;12.77;;;4.70;;
24151;SDS011;12311;50.866;4.332;2023-05-10T05:08:55;12.23;;;4.93;;
24151;SDS011;12311;50.866;4.332;2023-05-10T05:11:21;11.23;;;5.32;;
24151;SDS011;12311;50.866;4.332;2023-05-10T05:13:46;9.20;;;3.78;;
24151;SDS011;12311;50.866;4.332;2023-05-10T05:16:12;14.07;;;4.32;;
24151;SDS011;12311;50.866;4.332;2023-05-10T05:18:38;12.80;;;4.95;;
24151;SDS011;12311;50.866;4.332;2023-05-10T05:21:13;13.23;;;4.20;;
24151;SDS011;12311;50.866;4.332;2023-05-10T05:23:41;12.73;;;3.97;;
24151;SDS011;12311;50.866;4.332;2023-05-10T05:26:07;13.70;;;4.60;;
24151;SDS011;12311;50.866;4.332;2023-05-10T05:28:33;13.07;;;5.50;;
24151;SDS011;12311;50.866;4.332;2023-05-10T05:31:02;7.35;;;3.80;;
24151;SDS011;12311;50.866;4.332;2023-05-10T05:33:28;7.30;;;3.80;;
24151;SDS011;12311;50.866;4.332;2023-05-10T05:35:53;8.80;;;3.83;;
24151;SDS011;12311;50.866;4.332;2023-05-10T05:38:19;5.95;;;2.80;;
24151;SDS011;12311;50.866;4.332;2023-05-10T05:40:45;7.40;;;3.22;;
24151;SDS011;12311;50.866;4.332;2023-05-10T05:43:11;9.60;;;2.72;;
24151;SDS011;12311;50.866;4.332;2023-05-10T05:45:36;5.72;;;2.45;;
24151;SDS011;12311;50.866;4.332;2023-05-10T05:48:05;8.05;;;2.88;;
24151;SDS011;12311;50.866;4.332;2023-05-10T05:50:31;8.55;;;3.00;;
24151;SDS011;12311;50.866;4.332;2023-05-10T05:52:57;6.43;;;2.72;;
24151;SDS011;12311;50.866;4.332;2023-05-10T05:55:22;8.05;;;2.80;;
24151;SDS011;12311;50.866;4.332;2023-05-10T05:57:49;4.63;;;2.42;;
24151;SDS011;12311;50.866;4.332;2023-05-10T06:00:15;3.40;;;2.00;;
24151;SDS011;12311;50.866;4.332;2023-05-10T06:02:41;10.15;;;2.85;;
24151;SDS011;12311;50.866;4.332;2023-05-10T06:05:06;14.25;;;3.53;;
24151;SDS011;12311;50.866;4.332;2023-05-10T06:07:33;9.35;;;3.20;;
24151;SDS011;12311;50.866;4.332;2023-05-10T06:09:58;9.18;;;3.05;;
24151;SDS011;12311;50.866;4.332;2023-05-10T06:12:24;6.18;;;3.05;;
24151;SDS011;12311;50.866;4.332;2023-05-10T06:14:50;5.93;;;3.15;;
24151;SDS011;12311;50.866;4.332;2023-05-10T06:17:16;10.98;;;3.40;;
24151;SDS011;12311;50.866;4.332;2023-05-10T06:19:41;10.35;;;3.22;;
24151;SDS011;12311;50.866;4.332;2023-05-10T06:22:07;13.30;;;4.63;;
24151;SDS011;12311;50.866;4.332;2023-05-10T06:24:33;9.27;;;2.95;;
24151;SDS011;12311;50.866;4.332;2023-05-10T06:26:58;8.55;;;3.83;;
24151;SDS011;12311;50.866;4.332;2023-05-10T06:29:25;6.47;;;3.08;;
24151;SDS011;12311;50.866;4.332;2023-05-10T06:31:51;10.60;;;4.53;;
24151;SDS011;12311;50.866;4.332;2023-05-10T06:34:16;6.40;;;2.72;;
24151;SDS011;12311;50.866;4.332;2023-05-10T06:36:42;5.80;;;2.85;;
24151;SDS011;12311;50.866;4.332;2023-05-10T06:39:08;7.60;;;2.47;;
24151;SDS011;12311;50.866;4.332;2023-05-10T06:41:33;5.38;;;2.97;;
24151;SDS011;12311;50.866;4.332;2023-05-10T06:43:59;8.15;;;2.85;;
24151;SDS011;12311;50.866;4.332;2023-05-10T06:46:25;4.97;;;2.05;;
24151;SDS011;12311;50.866;4.332;2023-05-10T06:48:50;6.97;;;2.40;;
24151;SDS011;12311;50.866;4.332;2023-05-10T06:51:16;5.28;;;2.90;;
24151;SDS011;12311;50.866;4.332;2023-05-10T06:53:42;7.18;;;2.22;;
24151;SDS011;12311;50.866;4.332;2023-05-10T06:56:08;7.85;;;2.90;;
24151;SDS011;12311;50.866;4.332;2023-05-10T06:58:33;4.93;;;2.20;;
24151;SDS011;12311;50.866;4.332;2023-05-10T07:01:03;9.07;;;2.83;;
24151;SDS011;12311;50.866;4.332;2023-05-10T07:03:30;13.23;;;3.13;;
24151;SDS011;12311;50.866;4.332;2023-05-10T07:06:02;11.25;;;3.83;;
24151;SDS011;12311;50.866;4.332;2023-05-10T07:08:33;10.15;;;3.15;;
24151;SDS011;12311;50.866;4.332;2023-05-10T07:11:02;12.60;;;2.90;;
24151;SDS011;12311;50.866;4.332;2023-05-10T07:13:30;7.50;;;2.97;;
24151;SDS011;12311;50.866;4.332;2023-05-10T07:15:56;12.45;;;3.88;;
24151;SDS011;12311;50.866;4.332;2023-05-10T07:18:23;10.52;;;3.20;;
24151;SDS011;12311;50.866;4.332;2023-05-10T07:20:49;7.85;;;3.75;;
24151;SDS011;12311;50.866;4.332;2023-05-10T07:23:15;15.35;;;4.10;;
24151;SDS011;12311;50.866;4.332;2023-05-10T07:25:44;9.98;;;2.70;;
24151;SDS011;12311;50.866;4.332;2023-05-10T07:28:14;6.53;;;2.63;;
24151;SDS011;12311;50.866;4.332;2023-05-10T07:30:41;8.48;;;3.40;;
24151;SDS011;12311;50.866;4.332;2023-05-10T07:33:07;5.70;;;2.75;;
24151;SDS011;12311;50.866;4.332;2023-05-10T07:35:34;4.57;;;2.55;;
24151;SDS011;12311;50.866;4.332;2023-05-10T07:38:00;6.40;;;2.85;;
24151;SDS011;12311;50.866;4.332;2023-05-10T07:40:26;13.60;;;3.00;;
24151;SDS011;12311;50.866;4.332;2023-05-10T07:42:53;8.93;;;3.10;;
24151;SDS011;12311;50.866;4.332;2023-05-10T07:45:19;14.18;;;3.38;;
24151;SDS011;12311;50.866;4.332;2023-05-10T07:47:45;7.07;;;2.05;;
24151;SDS011;12311;50.866;4.332;2023-05-10T07:50:10;6.30;;;2.13;;
24151;SDS011;12311;50.866;4.332;2023-05-10T07:52:36;9.00;;;2.88;;
24151;SDS011;12311;50.866;4.332;2023-05-10T07:55:02;6.40;;;2.08;;
24151;SDS011;12311;50.866;4.332;2023-05-10T07:57:28;4.53;;;1.75;;
24151;SDS011;12311;50.866;4.332;2023-05-10T07:59:53;6.82;;;2.95;;
24151;SDS011;12311;50.866;4.332;2023-05-10T08:02:19;8.15;;;2.58;;
24151;SDS011;12311;50.866;4.332;2023-05-10T08:04:45;7.00;;;1.98;;
24151;SDS011;12311;50.866;4.332;2023-05-10T08:07:10;7.30;;;2.55;;
24151;SDS011;12311;50.866;4.332;2023-05-10T08:09:36;5.68;;;2.25;;
24151;SDS011;12311;50.866;4.332;2023-05-10T08:12:02;4.85;;;1.85;;
24151;SDS011;12311;50.866;4.332;2023-05-10T08:14:28;7.93;;;2.40;;
24151;SDS011;12311;50.866;4.332;2023-05-10T08:16:54;6.18;;;1.73;;
24151;SDS011;12311;50.866;4.332;2023-05-10T08:19:21;2.38;;;1.40;;
24151;SDS011;12311;50.866;4.332;2023-05-10T08:21:47;4.65;;;2.03;;
24151;SDS011;12311;50.866;4.332;2023-05-10T08:24:13;7.50;;;2.35;;
24151;SDS011;12311;50.866;4.332;2023-05-10T08:26:39;4.20;;;1.50;;
24151;SDS011;12311;50.866;4.332;2023-05-10T08:29:05;4.75;;;1.70;;
24151;SDS011;12311;50.866;4.332;2023-05-10T08:31:31;2.20;;;1.25;;
24151;SDS011;12311;50.866;4.332;2023-05-10T08:33:56;6.03;;;1.75;;
24151;SDS011;12311;50.866;4.332;2023-05-10T08:36:22;1.77;;;1.17;;
24151;SDS011;12311;50.866;4.332;2023-05-10T08:38:52;5.07;;;1.77;;
24151;SDS011;12311;50.866;4.332;2023-05-10T08:41:22;5.72;;;1.30;;
24151;SDS011;12311;50.866;4.332;2023-05-10T08:46:17;3.67;;;1.80;;
24151;SDS011;12311;50.866;4.332;2023-05-10T08:48:47;4.43;;;1.65;;
24151;SDS011;12311;50.866;4.332;2023-05-10T08:51:15;9.90;;;2.15;;
24151;SDS011;12311;50.866;4.332;2023-05-10T08:53:44;3.30;;;1.45;;
24151;SDS011;12311;50.866;4.332;2023-05-10T08:56:11;3.97;;;1.63;;
24151;SDS011;12311;50.866;4.332;2023-05-10T08:58:37;9.57;;;1.80;;
24151;SDS011;12311;50.866;4.332;2023-05-10T09:01:03;7.57;;;3.58;;
24151;SDS011;12311;50.866;4.332;2023-05-10T09:03:30;4.53;;;2.17;;
24151;SDS011;12311;50.866;4.332;2023-05-10T09:05:57;4.75;;;1.75;;
24151;SDS011;12311;50.866;4.332;2023-05-10T09:08:23;8.40;;;1.88;;
24151;SDS011;12311;50.866;4.332;2023-05-10T09:10:54;9.50;;;2.65;;
24151;SDS011;12311;50.866;4.332;2023-05-10T09:13:20;3.90;;;1.70;;
24151;SDS011;12311;50.866;4.332;2023-05-10T09:15:47;6.82;;;1.58;;
24151;SDS011;12311;50.866;4.332;2023-05-10T09:18:13;4.75;;;1.83;;
24151;SDS011;12311;50.866;4.332;2023-05-10T09:20:39;7.72;;;1.83;;
24151;SDS011;12311;50.866;4.332;2023-05-10T09:23:05;5.15;;;2.25;;
24151;SDS011;12311;50.866;4.332;2023-05-10T09:25:31;4.57;;;1.48;;
24151;SDS011;12311;50.866;4.332;2023-05-10T09:28:00;3.63;;;1.67;;
24151;SDS011;12311;50.866;4.332;2023-05-10T09:30:29;5.72;;;1.88;;
24151;SDS011;12311;50.866;4.332;2023-05-10T09:32:56;3.92;;;2.03;;
24151;SDS011;12311;50.866;4.332;2023-05-10T09:35:24;4.15;;;1.67;;
24151;SDS011;12311;50.866;4.332;2023-05-10T09:37:52;3.33;;;1.23;;
24151;SDS011;12311;50.866;4.332;2023-05-10T09:40:20;4.82;;;1.23;;
24151;SDS011;12311;50.866;4.332;2023-05-10T09:42:54;4.68;;;2.03;;
24151;SDS011;12311;50.866;4.332;2023-05-10T09:45:24;6.22;;;1.85;;
24151;SDS011;12311;50.866;4.332;2023-05-10T09:47:55;3.13;;;1.83;;
24151;SDS011;12311;50.866;4.332;2023-05-10T09:50:21;2.58;;;1.30;;
24151;SDS011;12311;50.866;4.332;2023-05-10T09:52:48;3.97;;;1.38;;
24151;SDS011;12311;50.866;4.332;2023-05-10T09:55:15;3.20;;;1.20;;
24151;SDS011;12311;50.866;4.332;2023-05-10T09:57:42;4.35;;;1.67;;
24151;SDS011;12311;50.866;4.332;2023-05-10T10:00:08;5.82;;;1.60;;
24151;SDS011;12311;50.866;4.332;2023-05-10T10:02:38;4.90;;;2.00;;
24151;SDS011;12311;50.866;4.332;2023-05-10T10:05:05;5.18;;;1.95;;
24151;SDS011;12311;50.866;4.332;2023-05-10T10:07:32;5.35;;;2.40;;
24151;SDS011;12311;50.866;4.332;2023-05-10T10:09:59;3.85;;;1.63;;
24151;SDS011;12311;50.866;4.332;2023-05-10T10:12:25;6.80;;;2.25;;
24151;SDS011;12311;50.866;4.332;2023-05-10T10:14:51;4.15;;;1.67;;
24151;SDS011;12311;50.866;4.332;2023-05-10T10:17:18;4.05;;;1.90;;
24151;SDS011;12311;50.866;4.332;2023-05-10T10:19:45;6.60;;;1.80;;
24151;SDS011;12311;50.866;4.332;2023-05-10T10:22:11;3.03;;;1.52;;
24151;SDS011;12311;50.866;4.332;2023-05-10T10:24:37;2.15;;;1.65;;
24151;SDS011;12311;50.866;4.332;2023-05-10T10:32:19;4.13;;;2.30;;
24151;SDS011;12311;50.866;4.332;2023-05-10T10:34:49;4.53;;;1.65;;
24151;SDS011;12311;50.866;4.332;2023-05-10T10:37:15;3.63;;;1.65;;
24151;SDS011;12311;50.866;4.332;2023-05-10T10:39:41;3.63;;;1.63;;
24151;SDS011;12311;50.866;4.332;2023-05-10T10:42:06;5.35;;;2.13;;
24151;SDS011;12311;50.866;4.332;2023-05-10T10:52:13;2.58;;;1.42;;
24151;SDS011;12311;50.866;4.332;2023-05-10T10:57:26;3.20;;;1.88;;
24151;SDS011;12311;50.866;4.332;2023-05-10T11:00:17;7.28;;;1.75;;
24151;SDS011;12311;50.866;4.332;2023-05-10T11:02:50;2.97;;;1.40;;
24151;SDS011;12311;50.866;4.332;2023-05-10T11:05:41;2.78;;;1.33;;
24151;SDS011;12311;50.866;4.332;2023-05-10T11:15:58;2.67;;;1.27;;
24151;SDS011;12311;50.866;4.332;2023-05-10T11:20:57;3.63;;;1.58;;
24151;SDS011;12311;50.866;4.332;2023-05-10T11:26:06;3.90;;;1.77;;
24151;SDS011;12311;50.866;4.332;2023-05-10T11:28:34;3.25;;;1.38;;
24151;SDS011;12311;50.866;4.332;2023-05-10T11:31:06;6.60;;;1.80;;
24151;SDS011;12311;50.866;4.332;2023-05-10T11:33:41;4.68;;;2.20;;
24151;SDS011;12311;50.866;4.332;2023-05-10T11:36:21;4.63;;;2.28;;
24151;SDS011;12311;50.866;4.332;2023-05-10T11:38:50;4.38;;;1.98;;
24151;SDS011;12311;50.866;4.332;2023-05-10T11:41:17;5.05;;;1.88;;
24151;SDS011;12311;50.866;4.332;2023-05-10T11:43:45;5.72;;;2.47;;
24151;SDS011;12311;50.866;4.332;2023-05-10T11:46:13;4.55;;;2.63;;
24151;SDS011;12311;50.866;4.332;2023-05-10T11:48:39;3.50;;;1.77;;
24151;SDS011;12311;50.866;4.332;2023-05-10T11:51:06;3.95;;;2.33;;
24151;SDS011;12311;50.866;4.332;2023-05-10T11:53:36;4.05;;;2.03;;
24151;SDS011;12311;50.866;4.332;2023-05-10T11:56:03;3.97;;;2.17;;
24151;SDS011;12311;50.866;4.332;2023-05-10T11:58:30;3.85;;;1.92;;
24151;SDS011;12311;50.866;4.332;2023-05-10T12:00:57;3.80;;;2.05;;
24151;SDS011;12311;50.866;4.332;2023-05-10T12:03:24;3.03;;;1.90;;
24151;SDS011;12311;50.866;4.332;2023-05-10T12:05:50;7.85;;;2.22;;
24151;SDS011;12311;50.866;4.332;2023-05-10T12:08:19;4.05;;;1.98;;
24151;SDS011;12311;50.866;4.332;2023-05-10T12:10:47;3.95;;;2.00;;
24151;SDS011;12311;50.866;4.332;2023-05-10T12:13:16;3.30;;;1.70;;
24151;SDS011;12311;50.866;4.332;2023-05-10T12:15:42;6.80;;;2.10;;
24151;SDS011;12311;50.866;4.332;2023-05-10T12:18:09;3.40;;;2.03;;
24151;SDS011;12311;50.866;4.332;2023-05-10T12:20:35;4.88;;;2.22;;
24151;SDS011;12311;50.866;4.332;2023-05-10T12:23:01;2.88;;;1.88;;
24151;SDS011;12311;50.866;4.332;2023-05-10T12:25:35;4.97;;;2.70;;
24151;SDS011;12311;50.866;4.332;2023-05-10T12:28:08;3.63;;;1.52;;
24151;SDS011;12311;50.866;4.332;2023-05-10T12:30:35;3.65;;;1.95;;
24151;SDS011;12311;50.866;4.332;2023-05-10T12:33:02;4.82;;;2.03;;
24151;SDS011;12311;50.866;4.332;2023-05-10T12:35:32;4.47;;;2.05;;
24151;SDS011;12311;50.866;4.332;2023-05-10T12:37:59;4.82;;;2.03;;
24151;SDS011;12311;50.866;4.332;2023-05-10T12:40:25;4.43;;;1.88;;
24151;SDS011;12311;50.866;4.332;2023-05-10T12:42:50;4.60;;;1.88;;
24151;SDS011;12311;50.866;4.332;2023-05-10T12:45:17;7.97;;;1.77;;
24151;SDS011;12311;50.866;4.332;2023-05-10T12:47:43;4.50;;;1.83;;
24151;SDS011;12311;50.866;4.332;2023-05-10T12:50:09;5.50;;;1.92;;
24151;SDS011;12311;50.866;4.332;2023-05-10T12:52:35;5.85;;;1.52;;
24151;SDS011;12311;50.866;4.332;2023-05-10T12:55:02;3.92;;;2.22;;
24151;SDS011;12311;50.866;4.332;2023-05-10T12:57:28;3.30;;;1.40;;
24151;SDS011;12311;50.866;4.332;2023-05-10T12:59:54;2.03;;;1.58;;
24151;SDS011;12311;50.866;4.332;2023-05-10T13:02:20;4.13;;;1.65;;
24151;SDS011;12311;50.866;4.332;2023-05-10T13:04:47;4.20;;;1.67;;
24151;SDS011;12311;50.866;4.332;2023-05-10T13:07:13;3.15;;;1.40;;
24151;SDS011;12311;50.866;4.332;2023-05-10T13:09:39;3.47;;;2.00;;
24151;SDS011;12311;50.866;4.332;2023-05-10T13:12:05;5.45;;;1.40;;
24151;SDS011;12311;50.866;4.332;2023-05-10T13:14:31;3.35;;;1.42;;
24151;SDS011;12311;50.866;4.332;2023-05-10T13:16:56;5.35;;;1.90;;
24151;SDS011;12311;50.866;4.332;2023-05-10T13:19:22;3.25;;;1.30;;
24151;SDS011;12311;50.866;4.332;2023-05-10T13:21:48;2.45;;;1.25;;
24151;SDS011;12311;50.866;4.332;2023-05-10T13:24:13;4.22;;;1.92;;
24151;SDS011;12311;50.866;4.332;2023-05-10T13:26:39;4.55;;;1.70;;
24151;SDS011;12311;50.866;4.332;2023-05-10T13:29:05;3.45;;;1.95;;
24151;SDS011;12311;50.866;4.332;2023-05-10T13:31:32;2.20;;;1.35;;
24151;SDS011;12311;50.866;4.332;2023-05-10T13:33:58;3.90;;;1.70;;
24151;SDS011;12311;50.866;4.332;2023-05-10T13:36:24;6.93;;;2.05;;
24151;SDS011;12311;50.866;4.332;2023-05-10T13:38:49;4.60;;;2.00;;
24151;SDS011;12311;50.866;4.332;2023-05-10T13:41:15;3.95;;;1.73;;
24151;SDS011;12311;50.866;4.332;2023-05-10T13:43:41;7.10;;;1.90;;
24151;SDS011;12311;50.866;4.332;2023-05-10T13:46:06;4.13;;;1.63;;
24151;SDS011;12311;50.866;4.332;2023-05-10T13:48:32;3.45;;;1.55;;
24151;SDS011;12311;50.866;4.332;2023-05-10T13:50:58;5.35;;;2.42;;
24151;SDS011;12311;50.866;4.332;2023-05-10T13:53:23;5.07;;;2.15;;
24151;SDS011;12311;50.866;4.332;2023-05-10T13:55:49;4.20;;;1.60;;
24151;SDS011;12311;50.866;4.332;2023-05-10T13:58:15;5.32;;;2.08;;
24151;SDS011;12311;50.866;4.332;2023-05-10T14:00:41;5.60;;;2.17;;
24151;SDS011;12311;50.866;4.332;2023-05-10T14:03:06;6.53;;;2.40;;
24151;SDS011;12311;50.866;4.332;2023-05-10T14:05:34;5.80;;;2.13;;
24151;SDS011;12311;50.866;4.332;2023-05-10T14:07:59;4.85;;;2.08;;
24151;SDS011;12311;50.866;4.332;2023-05-10T14:10:25;7.05;;;2.30;;
24151;SDS011;12311;50.866;4.332;2023-05-10T14:12:51;6.88;;;2.40;;
24151;SDS011;12311;50.866;4.332;2023-05-10T14:15:16;7.07;;;2.83;;
24151;SDS011;12311;50.866;4.332;2023-05-10T14:17:43;6.22;;;2.75;;
24151;SDS011;12311;50.866;4.332;2023-05-10T14:20:08;13.88;;;3.20;;
24151;SDS011;12311;50.866;4.332;2023-05-10T14:22:35;8.45;;;2.88;;
24151;SDS011;12311;50.866;4.332;2023-05-10T14:25:00;7.13;;;2.95;;
24151;SDS011;12311;50.866;4.332;2023-05-10T14:27:26;7.88;;;2.50;;
24151;SDS011;12311;50.866;4.332;2023-05-10T14:29:52;5.50;;;2.92;;
24151;SDS011;12311;50.866;4.332;2023-05-10T14:32:18;8.98;;;3.53;;
24151;SDS011;12311;50.866;4.332;2023-05-10T14:34:44;6.30;;;2.65;;
24151;SDS011;12311;50.866;4.332;2023-05-10T14:37:10;7.50;;;2.85;;
24151;SDS011;12311;50.866;4.332;2023-05-10T14:39:36;3.90;;;1.75;;
24151;SDS011;12311;50.866;4.332;2023-05-10T14:42:02;6.93;;;2.88;;
24151;SDS011;12311;50.866;4.332;2023-05-10T14:44:28;5.32;;;2.92;;
24151;SDS011;12311;50.866;4.332;2023-05-10T14:46:54;6.57;;;2.35;;
24151;SDS011;12311;50.866;4.332;2023-05-10T14:49:21;7.65;;;2.20;;
24151;SDS011;12311;50.866;4.332;2023-05-10T14:51:47;4.68;;;2.35;;
24151;SDS011;12311;50.866;4.332;2023-05-10T14:54:13;7.28;;;3.70;;
24151;SDS011;12311;50.866;4.332;2023-05-10T14:56:39;8.27;;;3.15;;
24151;SDS011;12311;50.866;4.332;2023-05-10T14:59:06;6.70;;;2.28;;
24151;SDS011;12311;50.866;4.332;2023-05-10T15:01:32;6.25;;;2.55;;
24151;SDS011;12311;50.866;4.332;2023-05-10T15:04:00;6.05;;;2.30;;
24151;SDS011;12311;50.866;4.332;2023-05-10T15:06:32;4.50;;;1.98;;
24151;SDS011;12311;50.866;4.332;2023-05-10T15:08:59;2.83;;;1.48;;
24151;SDS011;12311;50.866;4.332;2023-05-10T15:11:26;2.15;;;1.38;;
24151;SDS011;12311;50.866;4.332;2023-05-10T15:13:51;2.55;;;1.20;;
24151;SDS011;12311;50.866;4.332;2023-05-10T15:16:17;3.88;;;1.60;;
24151;SDS011;12311;50.866;4.332;2023-05-10T15:18:43;3.05;;;1.52;;
24151;SDS011;12311;50.866;4.332;2023-05-10T15:21:09;3.58;;;1.25;;
24151;SDS011;12311;50.866;4.332;2023-05-10T15:23:34;1.95;;;1.02;;
24151;SDS011;12311;50.866;4.332;2023-05-10T15:26:00;11.55;;;1.30;;
24151;SDS011;12311;50.866;4.332;2023-05-10T15:28:27;3.92;;;1.00;;
24151;SDS011;12311;50.866;4.332;2023-05-10T15:30:53;1.77;;;1.10;;
24151;SDS011;12311;50.866;4.332;2023-05-10T15:33:19;4.53;;;1.33;;
24151;SDS011;12311;50.866;4.332;2023-05-10T15:35:45;4.72;;;1.30;;